Airfield :
LOGIN :

Register | Disclaimer

   EN    FR    IT 

 










Legend :    VFR   Marginal VFR   IFR   Intensive IFR   Very Intensive IFR
Visi :
Ceiling :
>= 8 km
>= 3000ft
5 to 8 km
1000 to 3000 ft
1500m to 5 km
500 to 1000 ft
800 to 1500m
200 to 500 ft
< 800m
< 200 ft
Symbols :   Thunderstorms  Fog  Heavy snow  Heavy precipitations  Wind > 20 kt
SIGMETs :     Misc.  Thunderstorms  Icing  Turbulence  Mountain Waves  Volcanic Ashes







- Airport Elevation : 83 ft
- IATA code : LHR
- Download approach charts


EGLL - London Heathrow

CURRENT METAR :
  • 231350Z AUTO 06018KT 9999 SCT036 11/04 Q1015 NOSIG

EXPIRED METARs :
  • 231320Z AUTO 07016KT 9999 SCT034 11/04 Q1015 NOSIG
  • 231250Z AUTO 07016KT 9999 BKN031 BKN045 11/04 Q1015
  • 231220Z AUTO 07015KT 9999 BKN030 11/05 Q1015
  • 231150Z AUTO 08016KT 9999 BKN026 10/04 Q1015 NOSIG
  • 231120Z AUTO 06014KT 9999 BKN024 10/06 Q1015 NOSIG
  • 231050Z AUTO 06015KT 9999 FEW026 10/06 Q1015 NOSIG

TAF TAF EGLL
Valid from the 23 at 12:00 until the 24 at 18:00 UTC


231053Z 2312/2418 06012KT 9999 FEW030
TEMPO 2312/2319 07016G26KT
PROB30
TEMPO 2312/2314 9000
PROB40
TEMPO 2322/2411 BKN012
PROB30 2404/2410 7000
PROB30
TEMPO 2415/2418 06015G25KT
No reported NOTAMs for that airfield.
2 SIGMETs reported for the London FIR (EGTT) :
 
Severe turbulence
EGTT SIGMET 03 VALID 231215/231615 EGRR
EGTT LONDON FIR SEV TURB FCST S OF LINE N4931 W00800 - N5040 E00127 SFC/FL060 MOV N 05KT INTSF=
Severe turbulence
EGTT SIGMET 02 VALID 231215/231615 EGRR
EGTT LONDON FIR SEV TURB FCST NW OF LINE N5500 E00133 - N5237 W00530 FL240/330 MOV SE 05KT NC=



MET'MAP, your aeronautical weather chart ! - Copyright ORBIFLY December 2007 - Disclaimer

ORBIFLY MET'MAP TEAM :

Programming & Development : Alexandra Zaïnal
Concept & Development : Baudouin d'Aumeries
Co-Development & Prog : Marc-Olivier Méhu
Technical & hardware support : Manuel Goepfert

Contact : metmap@orbifly.com




SOURCES & CREDITS :

   NOAA